SAZN

Details ICAO SAZN (NQN)
Name PRESIDENTE PERON
Region Argentina
Timezone America/Argentina/Salta (UTC-3.0)
Plans Departing 55
Arriving 44
Stats Elevation 895 ft / 273 m (AMSL)
Location -38.949000° -68.155713°
Runways 1
Magnetic Variation 2.578° E
Sunrise 2018-05-25 11:38:23 UTC / 2018-05-25 08:38:23 Local
Sunset 2018-05-25 21:23:38 UTC / 2018-05-25 18:23:38 Local
Advertisement - Login to hide

Runways

ID Width Length Bearing (true) Bearing (mag) Surface Threshold Offset Overrun Length
08 147 ft / 45 m 8,411 ft / 2,564 m 90.23° 87.65° Asphalt 0 ft / 0 m 680 ft / 207 m
26 147 ft / 45 m 8,411 ft / 2,564 m 270.21° 267.63° Asphalt 0 ft / 0 m 675 ft / 206 m

Approach Navaids

Runway Type Ident Frequency Range Bearing (true) Bearing (mag) Slope Elevation
08 Localiser NE 110.30 MHz 18 nm / 33 km 92.65° 90.07° - 895 ft / 273 m (AMSL)
08 Glidescope NE 110.30 MHz 10 nm / 19 km 90.22° 87.64° 3.00° 896 ft / 273 m (AMSL)

Map

Weather


0- 5 10 15 20 25 30 35+ Temperature / ° C

Clouds and Precipitation
Forecast for 2018-05-25 06:00 UTC. Updated 4 hours ago

Ground ~20,000 ft ~40,000 ft Winds

METAR

SAZN 250900Z 00000KT CAVOK 02/00 Q1016

TAF

TAF SAZN 250500Z 2506/2606 VRB03KT CAVOK TX18/2519Z TN02/2510Z BECMG 2507/2509 6000 BECMG 2514/2516 CAVOK

Frequencies

Tower 119.30 MHz NEUQUEN TWR/APP
Warning: Do not use this data for real-world aviation or navigation. No guarantee of current accuracy is given.